createdAt,value
2019-03-15T00:02:05.060Z,3.50
2019-03-15T00:04:35.529Z,3.63
2019-03-15T00:07:05.787Z,3.67
2019-03-15T00:09:36.057Z,4.37
2019-03-15T00:12:06.433Z,3.97
2019-03-15T00:14:36.841Z,3.93
2019-03-15T00:17:07.150Z,3.70
2019-03-15T00:19:37.526Z,4.20
2019-03-15T00:22:08.062Z,4.20
2019-03-15T00:24:38.322Z,4.10
2019-03-15T00:27:08.867Z,4.60
2019-03-15T00:29:39.683Z,3.83
2019-03-15T00:32:12.182Z,4.20
2019-03-15T00:34:42.824Z,3.70
2019-03-15T00:37:13.798Z,3.70
2019-03-15T00:39:43.972Z,4.57
2019-03-15T00:42:14.139Z,4.30
2019-03-15T00:44:44.278Z,4.10
2019-03-15T00:47:14.496Z,4.10
2019-03-15T00:49:44.916Z,5.20
2019-03-15T00:52:15.329Z,4.20
2019-03-15T00:54:46.159Z,3.77
2019-03-15T00:57:16.250Z,4.20
2019-03-15T00:59:46.509Z,3.83
2019-03-15T01:02:17.249Z,4.10
2019-03-15T01:04:47.521Z,3.60
2019-03-15T01:07:17.511Z,4.20
2019-03-15T01:09:47.713Z,3.60
2019-03-15T01:12:18.015Z,3.63
2019-03-15T01:14:48.966Z,3.40
2019-03-15T01:17:19.544Z,3.57
2019-03-15T01:19:49.847Z,3.80
2019-03-15T01:22:20.376Z,3.40
2019-03-15T01:24:50.898Z,3.73
2019-03-15T01:27:22.072Z,3.53
2019-03-15T01:29:52.244Z,4.43
2019-03-15T01:32:22.519Z,3.73
2019-03-15T01:34:53.682Z,3.50
2019-03-15T01:37:24.504Z,3.43
2019-03-15T01:39:55.085Z,3.57
2019-03-15T01:42:25.598Z,3.60
2019-03-15T01:44:55.763Z,3.70
2019-03-15T01:47:25.983Z,3.47
2019-03-15T01:49:58.619Z,3.60
2019-03-15T01:52:29.032Z,4.37
2019-03-15T01:54:59.139Z,3.40
2019-03-15T01:57:48.444Z,3.20
2019-03-15T02:00:18.957Z,4.10
2019-03-15T02:02:49.146Z,4.33
2019-03-15T02:05:19.289Z,4.10
2019-03-15T02:07:49.480Z,3.77
2019-03-15T02:10:22.129Z,3.97
2019-03-15T02:13:00.114Z,4.10
2019-03-15T02:15:30.396Z,3.80
2019-03-15T02:18:00.574Z,3.97
2019-03-15T02:20:30.821Z,3.70
2019-03-15T02:23:01.012Z,4.43
2019-03-15T02:25:31.134Z,4.17
2019-03-15T02:28:01.282Z,4.17
2019-03-15T02:30:32.338Z,3.87
2019-03-15T02:33:03.027Z,3.67
2019-03-15T02:35:33.223Z,3.80
2019-03-15T02:38:04.209Z,3.70
2019-03-15T02:40:34.471Z,4.10
2019-03-15T02:43:05.005Z,3.67
2019-03-15T02:45:35.177Z,4.23
2019-03-15T02:48:05.791Z,3.13
2019-03-15T02:50:36.354Z,3.50
2019-03-15T02:53:06.586Z,4.27
2019-03-15T02:55:36.885Z,3.40
2019-03-15T02:58:06.998Z,3.47
2019-03-15T03:00:40.874Z,3.60
2019-03-15T03:03:11.706Z,3.20
2019-03-15T03:05:42.070Z,3.20
2019-03-15T03:08:14.168Z,4.10
2019-03-15T03:10:44.586Z,3.57
2019-03-15T03:13:14.785Z,3.50
2019-03-15T03:15:44.980Z,3.23
2019-03-15T03:18:15.269Z,3.80
2019-03-15T03:20:45.630Z,3.47
2019-03-15T03:23:15.878Z,3.20
2019-03-15T03:25:46.192Z,3.70
2019-03-15T03:28:16.660Z,2.80
2019-03-15T03:30:47.296Z,3.47
2019-03-15T03:33:17.741Z,3.17
2019-03-15T03:35:47.807Z,3.40
2019-03-15T03:38:18.413Z,3.30
2019-03-15T03:40:48.553Z,3.77
2019-03-15T03:43:18.847Z,3.00
2019-03-15T03:46:08.248Z,3.30
2019-03-15T03:48:38.786Z,2.80
2019-03-15T03:51:09.116Z,3.23
2019-03-15T03:53:49.196Z,3.10
2019-03-15T03:56:19.443Z,3.77
2019-03-15T03:58:49.802Z,3.17
2019-03-15T04:01:20.036Z,3.40
2019-03-15T04:03:50.544Z,3.17
2019-03-15T04:06:20.997Z,2.90
2019-03-15T04:08:51.337Z,2.80
2019-03-15T04:11:21.518Z,3.33
2019-03-15T04:13:51.892Z,3.13
2019-03-15T04:16:22.179Z,3.20
2019-03-15T04:19:01.623Z,2.57
2019-03-15T04:21:32.134Z,2.83
2019-03-15T04:24:02.481Z,3.03
2019-03-15T04:26:33.303Z,3.17
2019-03-15T04:29:03.487Z,2.80
2019-03-15T04:31:33.639Z,2.87
2019-03-15T04:34:04.295Z,3.17
2019-03-15T04:36:34.702Z,2.83
2019-03-15T04:39:06.571Z,2.90
2019-03-15T04:41:37.113Z,3.00
2019-03-15T04:44:07.648Z,2.60
2019-03-15T04:46:37.998Z,2.87
2019-03-15T04:49:08.028Z,3.30
2019-03-15T04:51:38.240Z,3.10
2019-03-15T04:54:08.539Z,3.47
2019-03-15T04:56:41.949Z,2.63
2019-03-15T04:59:12.194Z,3.20
2019-03-15T05:01:42.591Z,2.93
2019-03-15T05:04:20.921Z,2.60
2019-03-15T05:06:51.351Z,2.60
2019-03-15T05:09:21.834Z,3.13
2019-03-15T05:11:52.506Z,3.33
2019-03-15T05:14:23.325Z,3.47
2019-03-15T05:16:53.620Z,2.60
2019-03-15T05:19:23.831Z,2.93
2019-03-15T05:21:54.764Z,2.50
2019-03-15T05:24:31.321Z,3.43
2019-03-15T05:27:01.629Z,3.00
2019-03-15T05:29:32.128Z,3.23
2019-03-15T05:32:02.776Z,2.60
2019-03-15T05:34:33.133Z,2.90
2019-03-15T05:37:03.337Z,3.23
2019-03-15T05:39:33.608Z,3.17
2019-03-15T05:42:03.771Z,3.40
2019-03-15T05:44:34.214Z,3.37
2019-03-15T05:47:04.514Z,3.20
2019-03-15T05:49:34.802Z,3.07
2019-03-15T05:52:05.052Z,2.77
2019-03-15T05:54:35.343Z,3.70
2019-03-15T05:57:05.559Z,3.00
2019-03-15T05:59:35.770Z,4.10
2019-03-15T06:02:06.005Z,3.37
2019-03-15T06:04:36.490Z,3.10
2019-03-15T06:07:07.035Z,3.47
2019-03-15T06:09:37.583Z,3.70
2019-03-15T06:12:07.874Z,4.77
2019-03-15T06:14:38.747Z,4.00
2019-03-15T06:17:08.939Z,4.13
2019-03-15T06:19:39.223Z,3.90
2019-03-15T06:22:09.619Z,3.83
2019-03-15T06:24:39.807Z,4.50
2019-03-15T06:27:10.250Z,4.63
2019-03-15T06:29:40.590Z,4.40
2019-03-15T06:32:10.840Z,4.50
2019-03-15T06:34:41.062Z,4.50
2019-03-15T06:37:11.182Z,4.57
2019-03-15T06:39:42.070Z,4.87
2019-03-15T06:42:12.661Z,4.93
2019-03-15T06:44:43.200Z,4.60
2019-03-15T06:47:13.643Z,4.83
2019-03-15T06:49:43.871Z,4.77
2019-03-15T06:52:14.014Z,5.07
2019-03-15T06:54:51.674Z,4.87
2019-03-15T06:57:22.218Z,4.80
2019-03-15T06:59:52.381Z,4.70
2019-03-15T07:02:23.057Z,5.00
2019-03-15T07:04:54.189Z,5.30
2019-03-15T07:07:24.785Z,5.00
2019-03-15T07:09:55.045Z,4.73
2019-03-15T07:12:25.287Z,4.80
2019-03-15T07:14:56.127Z,4.53
2019-03-15T07:17:26.682Z,5.00
2019-03-15T07:20:00.292Z,4.57
2019-03-15T07:22:30.576Z,4.90
2019-03-15T07:25:00.815Z,5.13
2019-03-15T07:27:31.025Z,4.73
2019-03-15T07:30:01.557Z,5.10
2019-03-15T07:32:32.092Z,5.43
2019-03-15T07:35:02.646Z,5.00
2019-03-15T07:37:32.777Z,5.37
2019-03-15T07:40:03.099Z,5.10
2019-03-15T07:42:33.084Z,5.63
2019-03-15T07:45:03.406Z,5.73
2019-03-15T07:47:33.749Z,5.80
2019-03-15T07:50:04.053Z,6.33
2019-03-15T07:52:34.685Z,5.90
2019-03-15T07:55:13.420Z,6.37
2019-03-15T07:57:43.714Z,6.87
2019-03-15T08:00:14.102Z,7.23
2019-03-15T08:02:44.397Z,6.93
2019-03-15T08:05:14.688Z,7.10
2019-03-15T08:07:45.912Z,6.60
2019-03-15T08:10:16.317Z,6.80
2019-03-15T08:12:49.662Z,7.77
2019-03-15T08:15:19.099Z,6.80
2019-03-15T08:17:49.384Z,7.73
2019-03-15T08:20:19.912Z,7.07
2019-03-15T08:22:50.198Z,7.80
2019-03-15T08:25:20.377Z,7.60
2019-03-15T08:27:50.689Z,6.87
2019-03-15T08:30:21.247Z,7.47
2019-03-15T08:32:51.582Z,7.10
2019-03-15T08:35:24.533Z,7.13
2019-03-15T08:37:54.018Z,7.07
2019-03-15T08:40:25.829Z,7.37
2019-03-15T08:42:56.470Z,7.03
2019-03-15T08:45:27.335Z,7.23
2019-03-15T08:47:57.985Z,7.60
2019-03-15T08:50:28.182Z,7.27
2019-03-15T08:52:58.755Z,7.30
2019-03-15T08:55:29.022Z,7.00
2019-03-15T08:58:13.047Z,7.23
2019-03-15T09:00:31.807Z,7.27
2019-03-15T09:03:02.459Z,7.47
2019-03-15T09:05:32.749Z,6.87
2019-03-15T09:08:02.906Z,7.33
2019-03-15T09:10:33.350Z,7.20
2019-03-15T09:13:03.696Z,8.00
2019-03-15T09:15:33.956Z,7.03
2019-03-15T09:18:04.231Z,6.87
2019-03-15T09:20:34.753Z,6.80
2019-03-15T09:23:06.395Z,7.67
2019-03-15T09:25:36.770Z,7.00
2019-03-15T09:28:07.606Z,7.33
2019-03-15T09:30:37.972Z,7.50
2019-03-15T09:33:09.385Z,8.50
2019-03-15T09:35:40.720Z,8.40
2019-03-15T09:38:11.346Z,8.87
2019-03-15T09:40:41.589Z,9.40
2019-03-15T09:43:12.164Z,10.00
2019-03-15T09:45:42.614Z,10.00
2019-03-15T09:48:12.945Z,10.37
2019-03-15T09:50:51.076Z,10.17
2019-03-15T09:53:16.522Z,10.77
2019-03-15T09:55:47.113Z,10.43
2019-03-15T09:58:17.391Z,10.13
2019-03-15T10:00:48.154Z,11.60
2019-03-15T10:03:22.516Z,11.70
2019-03-15T10:05:50.823Z,11.23
2019-03-15T10:08:23.534Z,10.33
2019-03-15T10:10:54.554Z,10.47
2019-03-15T10:13:25.124Z,10.50
2019-03-15T10:15:56.033Z,10.53
2019-03-15T10:18:26.453Z,10.87
2019-03-15T10:20:56.598Z,10.90
2019-03-15T10:23:26.978Z,11.47
2019-03-15T10:25:59.286Z,12.03
2019-03-15T10:28:29.795Z,12.63
2019-03-15T10:31:02.739Z,11.93
2019-03-15T10:33:34.134Z,11.40
2019-03-15T10:36:04.723Z,10.60
2019-03-15T10:38:35.005Z,12.27
2019-03-15T10:41:05.322Z,10.80
2019-03-15T10:43:35.899Z,11.00
2019-03-15T10:46:06.630Z,10.40
2019-03-15T10:48:37.289Z,8.47
2019-03-15T10:51:07.645Z,7.80
2019-03-15T10:53:37.885Z,8.30
2019-03-15T10:56:08.537Z,6.93
2019-03-15T10:58:38.858Z,7.20
2019-03-15T11:01:09.255Z,6.70
2019-03-15T11:03:39.895Z,7.30
2019-03-15T11:06:12.082Z,6.93
2019-03-15T11:08:44.319Z,6.00
2019-03-15T11:11:14.579Z,6.03
2019-03-15T11:13:49.215Z,5.53
2019-03-15T11:16:19.513Z,6.43
2019-03-15T11:18:49.855Z,6.40
2019-03-15T11:21:20.881Z,11.73
2019-03-15T11:23:57.393Z,6.60
2019-03-15T11:26:27.785Z,5.60
2019-03-15T11:28:58.058Z,4.73
2019-03-15T11:31:28.687Z,5.30
2019-03-15T11:33:59.124Z,11.37
2019-03-15T11:36:29.813Z,5.10
2019-03-15T11:39:00.091Z,4.10
2019-03-15T11:41:30.516Z,4.93
2019-03-15T11:44:00.804Z,4.40
2019-03-15T11:46:31.124Z,4.00
2019-03-15T11:49:01.556Z,3.80
2019-03-15T11:51:32.283Z,3.73
2019-03-15T11:54:10.573Z,3.30
2019-03-15T11:56:41.085Z,3.50
2019-03-15T11:59:11.489Z,3.13
2019-03-15T12:01:41.672Z,3.33
2019-03-15T12:04:11.891Z,3.70
2019-03-15T12:06:42.191Z,3.20
2019-03-15T12:09:12.396Z,3.10
2019-03-15T12:11:44.062Z,3.10
2019-03-15T12:14:14.892Z,2.97
2019-03-15T12:16:45.184Z,2.70
2019-03-15T12:19:18.686Z,2.70
2019-03-15T12:21:49.394Z,2.67
2019-03-15T12:24:19.829Z,2.80
2019-03-15T12:26:50.511Z,2.73
2019-03-15T12:29:21.190Z,2.87
2019-03-15T12:31:51.808Z,2.30
2019-03-15T12:34:21.886Z,2.97
2019-03-15T12:36:52.105Z,2.43
2019-03-15T12:39:22.651Z,2.10
2019-03-15T12:41:52.942Z,2.23
2019-03-15T12:44:23.199Z,1.90
2019-03-15T12:46:53.482Z,2.10
2019-03-15T12:49:25.662Z,1.80
2019-03-15T12:51:56.280Z,2.17
2019-03-15T12:54:27.439Z,2.30
2019-03-15T12:56:57.633Z,2.23
2019-03-15T12:59:28.128Z,2.17
2019-03-15T13:01:58.516Z,2.10
2019-03-15T13:04:28.993Z,1.70
2019-03-15T13:06:59.476Z,2.13
2019-03-15T13:09:29.885Z,2.47
2019-03-15T13:12:00.193Z,2.63
2019-03-15T13:14:30.501Z,2.30
2019-03-15T13:17:01.180Z,2.90
2019-03-15T13:19:31.550Z,2.20
2019-03-15T13:22:02.024Z,2.10
2019-03-15T13:24:32.395Z,2.40
2019-03-15T13:27:07.600Z,2.03
2019-03-15T13:29:35.311Z,2.20
2019-03-15T13:32:05.510Z,2.40
2019-03-15T13:34:36.568Z,27.10
2019-03-15T13:37:07.003Z,8.53
2019-03-15T13:39:38.786Z,3.00
2019-03-15T13:42:09.401Z,2.67
2019-03-15T13:44:40.154Z,6.30
2019-03-15T13:47:10.368Z,5.47
2019-03-15T13:49:41.423Z,2.47
2019-03-15T13:52:12.763Z,5.73
2019-03-15T13:54:43.249Z,11.77
2019-03-15T13:57:21.055Z,5.17
2019-03-15T13:59:45.637Z,4.30
2019-03-15T14:02:15.945Z,3.80
2019-03-15T14:04:46.503Z,4.33
2019-03-15T14:07:19.850Z,2.50
2019-03-15T14:09:48.668Z,2.23
2019-03-15T14:12:18.930Z,2.07
2019-03-15T14:14:49.132Z,1.40
2019-03-15T14:17:19.895Z,2.10
2019-03-15T14:19:50.889Z,2.03
2019-03-15T14:22:21.613Z,2.20
2019-03-15T14:24:52.937Z,2.07
2019-03-15T14:27:37.027Z,1.83
2019-03-15T14:29:57.845Z,2.50
2019-03-15T14:32:28.167Z,1.77
2019-03-15T14:34:58.440Z,1.50
2019-03-15T14:37:29.782Z,1.50
2019-03-15T14:40:03.354Z,1.47
2019-03-15T14:42:33.732Z,2.20
2019-03-15T14:45:04.230Z,1.70
2019-03-15T14:47:40.686Z,1.40
2019-03-15T14:50:11.478Z,1.93
2019-03-15T14:52:42.131Z,1.60
2019-03-15T14:55:12.487Z,2.20
2019-03-15T14:57:52.096Z,2.00
2019-03-15T15:00:15.762Z,1.63
2019-03-15T15:02:45.959Z,1.43
2019-03-15T15:05:16.386Z,2.00
2019-03-15T15:07:46.921Z,2.37
2019-03-15T15:10:22.618Z,6.23
2019-03-15T15:12:53.207Z,5.03
2019-03-15T15:15:24.062Z,3.23
2019-03-15T15:17:54.556Z,2.40
2019-03-15T15:20:24.586Z,4.03
2019-03-15T15:22:54.910Z,4.30
2019-03-15T15:25:25.594Z,3.00
2019-03-15T15:28:04.522Z,2.80
2019-03-15T15:30:28.613Z,2.43
2019-03-15T15:32:59.096Z,3.03
2019-03-15T15:35:29.334Z,4.50
2019-03-15T15:37:59.546Z,1.70
2019-03-15T15:40:29.896Z,2.50
2019-03-15T15:43:00.418Z,2.00
2019-03-15T15:45:30.700Z,3.40
2019-03-15T15:48:03.258Z,1.90
2019-03-15T15:50:35.643Z,2.00
2019-03-15T15:53:06.039Z,1.90
2019-03-15T15:55:37.658Z,1.83
2019-03-15T15:58:17.405Z,1.80
2019-03-15T16:00:39.855Z,1.67
2019-03-15T16:03:10.169Z,1.97
2019-03-15T16:05:40.483Z,1.70
2019-03-15T16:08:11.059Z,1.97
2019-03-15T16:10:41.643Z,1.80
2019-03-15T16:13:17.168Z,1.93
2019-03-15T16:15:44.419Z,1.60
2019-03-15T16:18:14.891Z,1.90
2019-03-15T16:20:45.188Z,1.97
2019-03-15T16:23:15.722Z,2.47
2019-03-15T16:25:46.504Z,1.70
2019-03-15T16:28:16.734Z,1.73
2019-03-15T16:30:46.999Z,1.30
2019-03-15T16:33:17.530Z,1.73
2019-03-15T16:35:48.169Z,1.80
2019-03-15T16:38:26.541Z,1.60
2019-03-15T16:40:56.852Z,1.47
2019-03-15T16:43:27.184Z,1.47
2019-03-15T16:45:57.786Z,1.83
2019-03-15T16:48:28.071Z,1.40
2019-03-15T16:50:58.381Z,1.50
2019-03-15T16:53:28.864Z,1.60
2019-03-15T16:55:59.171Z,1.43
2019-03-15T16:58:29.414Z,1.20
2019-03-15T17:00:59.709Z,1.63
2019-03-15T17:03:36.802Z,1.40
2019-03-15T17:06:07.322Z,1.60
2019-03-15T17:08:37.936Z,1.80
2019-03-15T17:11:09.144Z,2.07
2019-03-15T17:13:43.694Z,1.80
2019-03-15T17:16:16.301Z,2.00
2019-03-15T17:18:52.768Z,1.83
2019-03-15T17:21:22.976Z,1.80
2019-03-15T17:23:53.582Z,1.63
2019-03-15T17:26:23.919Z,1.53
2019-03-15T17:28:58.742Z,1.70
2019-03-15T17:31:26.455Z,1.87
2019-03-15T17:33:59.522Z,1.57
2019-03-15T17:36:30.180Z,1.70
2019-03-15T17:39:00.501Z,1.70
2019-03-15T17:41:31.533Z,2.20
2019-03-15T17:44:02.524Z,1.60
2019-03-15T17:46:32.922Z,2.10
2019-03-15T17:49:03.660Z,1.27
2019-03-15T17:51:34.573Z,1.70
2019-03-15T17:54:04.783Z,1.37
2019-03-15T17:56:35.134Z,1.97
2019-03-15T17:59:12.494Z,1.83
2019-03-15T18:01:49.006Z,1.87
2019-03-15T18:04:19.223Z,1.80
2019-03-15T18:06:49.497Z,2.20
2019-03-15T18:09:19.746Z,1.90
2019-03-15T18:11:51.187Z,1.50
2019-03-15T18:14:28.932Z,1.83
2019-03-15T18:17:00.361Z,1.40
2019-03-15T18:19:30.549Z,1.80
2019-03-15T18:22:02.622Z,1.90
2019-03-15T18:24:32.913Z,1.70
2019-03-15T18:27:03.213Z,1.80
2019-03-15T18:29:33.886Z,1.87
2019-03-15T18:32:04.329Z,1.53
2019-03-15T18:34:35.541Z,1.47
2019-03-15T18:37:05.897Z,1.73
2019-03-15T18:39:38.572Z,1.40
2019-03-15T18:42:08.792Z,1.43
2019-03-15T18:44:40.108Z,1.40
2019-03-15T18:47:10.456Z,1.50
2019-03-15T18:49:40.793Z,1.57
2019-03-15T18:52:11.093Z,1.73
2019-03-15T18:54:41.262Z,2.20
2019-03-15T18:57:11.622Z,1.70
2019-03-15T18:59:41.972Z,1.30
2019-03-15T19:02:12.461Z,2.03
2019-03-15T19:04:42.735Z,1.57
2019-03-15T19:07:12.895Z,1.70
2019-03-15T19:09:43.704Z,1.40
2019-03-15T19:12:14.032Z,1.60
2019-03-15T19:14:44.218Z,1.33
2019-03-15T19:17:14.595Z,1.70
2019-03-15T19:19:44.939Z,1.40
2019-03-15T19:22:15.503Z,2.13
2019-03-15T19:24:45.779Z,1.70
2019-03-15T19:27:17.351Z,1.90
2019-03-15T19:29:53.516Z,2.50
2019-03-15T19:32:20.153Z,1.57
2019-03-15T19:34:50.353Z,1.53
2019-03-15T19:37:20.680Z,1.53
2019-03-15T19:39:50.933Z,2.07
2019-03-15T19:42:21.193Z,1.53
2019-03-15T19:44:52.779Z,1.63
2019-03-15T19:47:23.035Z,1.73
2019-03-15T19:49:53.237Z,1.73
2019-03-15T19:52:23.852Z,1.70
2019-03-15T19:55:00.261Z,2.17
2019-03-15T19:57:26.397Z,1.57
2019-03-15T20:00:07.042Z,3.70
2019-03-15T20:02:29.291Z,2.77
2019-03-15T20:05:00.424Z,1.97
2019-03-15T20:07:31.068Z,2.17
2019-03-15T20:10:01.885Z,2.23
2019-03-15T20:12:33.861Z,1.97
2019-03-15T20:15:04.569Z,1.93
2019-03-15T20:17:35.056Z,1.80
2019-03-15T20:20:06.072Z,2.07
2019-03-15T20:22:36.852Z,1.97
2019-03-15T20:25:09.100Z,1.90
2019-03-15T20:27:40.819Z,2.10
2019-03-15T20:30:21.095Z,2.40
2019-03-15T20:32:47.090Z,2.10
2019-03-15T20:35:17.402Z,1.80
2019-03-15T20:37:48.039Z,2.10
2019-03-15T20:40:18.315Z,1.90
2019-03-15T20:42:50.566Z,1.80
2019-03-15T20:45:20.879Z,2.30
2019-03-15T20:47:51.251Z,2.10
2019-03-15T20:50:21.705Z,2.10
2019-03-15T20:52:52.184Z,1.97
2019-03-15T20:55:22.534Z,1.83
2019-03-15T20:57:52.747Z,1.63
2019-03-15T21:00:34.738Z,2.37
2019-03-15T21:02:55.666Z,2.10
2019-03-15T21:05:26.155Z,1.60
2019-03-15T21:07:57.004Z,1.70
2019-03-15T21:10:30.844Z,2.47
2019-03-15T21:13:01.180Z,1.83
2019-03-15T21:15:31.663Z,6.93
2019-03-15T21:18:02.084Z,1.83
2019-03-15T21:20:33.499Z,1.83
2019-03-15T21:23:03.817Z,2.40
2019-03-15T21:25:34.128Z,2.17
2019-03-15T21:28:04.866Z,1.83
2019-03-15T21:30:47.792Z,1.70
2019-03-15T21:33:08.505Z,1.70
2019-03-15T21:35:39.060Z,1.60
2019-03-15T21:38:09.547Z,1.87
2019-03-15T21:40:39.634Z,1.70
2019-03-15T21:43:17.783Z,1.70
2019-03-15T21:45:48.367Z,1.97
2019-03-15T21:48:19.301Z,2.10
2019-03-15T21:50:49.949Z,2.13
2019-03-15T21:53:20.191Z,1.80
2019-03-15T21:55:50.739Z,1.70
2019-03-15T21:58:21.356Z,2.03
2019-03-15T22:01:01.605Z,1.70
2019-03-15T22:03:23.729Z,1.70
2019-03-15T22:05:54.525Z,2.37
2019-03-15T22:08:25.104Z,2.30
2019-03-15T22:10:55.937Z,2.23
2019-03-15T22:13:26.179Z,1.50
2019-03-15T22:15:56.458Z,2.00
2019-03-15T22:18:26.747Z,1.90
2019-03-15T22:20:59.586Z,2.00
2019-03-15T22:23:29.781Z,17.30
2019-03-15T22:26:00.034Z,3.17
2019-03-15T22:28:30.216Z,1.53
2019-03-15T22:31:00.523Z,2.37
2019-03-15T22:33:30.659Z,1.90
2019-03-15T22:36:00.855Z,2.00
2019-03-15T22:38:31.297Z,1.90
2019-03-15T22:41:01.583Z,2.10
2019-03-15T22:43:32.115Z,1.43
2019-03-15T22:46:02.555Z,1.83
2019-03-15T22:48:32.834Z,2.57
2019-03-15T22:51:03.285Z,2.43
2019-03-15T22:53:33.758Z,2.10
2019-03-15T22:56:04.593Z,2.23
2019-03-15T22:58:34.875Z,2.13
2019-03-15T23:01:08.011Z,1.93
2019-03-15T23:03:38.350Z,2.10
2019-03-15T23:06:09.143Z,2.00
2019-03-15T23:08:39.589Z,1.53
2019-03-15T23:11:09.832Z,2.07
2019-03-15T23:13:40.138Z,2.27
2019-03-15T23:16:10.900Z,1.97
2019-03-15T23:18:41.119Z,1.70
2019-03-15T23:21:11.424Z,2.47
2019-03-15T23:23:43.621Z,2.00
2019-03-15T23:26:14.136Z,2.17
2019-03-15T23:28:47.261Z,1.80
2019-03-15T23:31:18.115Z,1.80
2019-03-15T23:33:48.422Z,2.60
2019-03-15T23:36:18.967Z,2.30
2019-03-15T23:38:49.700Z,1.87
2019-03-15T23:41:20.498Z,2.60
2019-03-15T23:43:51.163Z,2.53
2019-03-15T23:46:21.388Z,2.13
2019-03-15T23:48:52.799Z,2.23
2019-03-15T23:51:23.163Z,2.40
2019-03-15T23:53:53.985Z,8.07
2019-03-15T23:56:24.529Z,2.10
2019-03-15T23:58:54.898Z,2.27
